Acadiana Regional Airport New Iberia US
ICAO: KARA
IATA: ARA
Category: Medium
Scheduled Services: No

Elevation: 24 ft
TransAlt. 18000 ft.

Airport Communications:
LAFAYETTE APP/DEP:121.1
CLNC DEL:121.7
CTAF:125
GND:121.7
TWR:125
UNICOM:122.95

KARA Zoom In..

Runways:

(A) RW 16 length 8002 ft width 200 ft
---- / hdg 165

(B) RW 34 length 8002 ft width 200 ft
ILS 108.90 / hdg 345

Location; KARA
Day. 13 / Time. 12.53 Zulu
* Altimeter: 30.01
* Temperature: 28° c. 82.4°f.
* Wind from: 000° Speed 00 kn.
Dewpoint: 26° c.
Visibility: 10 Statute Miles.
Clouds: Clear (automated report).

KARA 131253Z 00000KT 10SM CLR 28/26 A3001 RMK AO2 LTG DSNT SE SLP161 T02780256

Going to: --> -->


Wind - Calm.

 
 
jpsmedia worldairports.se 2020   terms of use